sensor_id;sensor_type;location;lat;lon;timestamp;P1;durP1;ratioP1;P2;durP2;ratioP2
47625;SDS011;33342;45.574;9.252;2022-10-20T00:02:06;40.83;;;29.27;;
47625;SDS011;33342;45.574;9.252;2022-10-20T00:04:32;43.50;;;30.58;;
47625;SDS011;33342;45.574;9.252;2022-10-20T00:07:00;38.15;;;29.48;;
47625;SDS011;33342;45.574;9.252;2022-10-20T00:09:27;46.47;;;31.17;;
47625;SDS011;33342;45.574;9.252;2022-10-20T00:11:54;45.72;;;30.70;;
47625;SDS011;33342;45.574;9.252;2022-10-20T00:14:21;41.20;;;30.20;;
47625;SDS011;33342;45.574;9.252;2022-10-20T00:16:48;43.38;;;30.88;;
47625;SDS011;33342;45.574;9.252;2022-10-20T00:19:15;42.13;;;29.52;;
47625;SDS011;33342;45.574;9.252;2022-10-20T00:21:42;41.20;;;29.40;;
47625;SDS011;33342;45.574;9.252;2022-10-20T00:24:09;39.35;;;30.05;;
47625;SDS011;33342;45.574;9.252;2022-10-20T00:26:36;45.30;;;31.13;;
47625;SDS011;33342;45.574;9.252;2022-10-20T00:29:03;41.55;;;30.08;;
47625;SDS011;33342;45.574;9.252;2022-10-20T00:31:30;44.67;;;29.27;;
47625;SDS011;33342;45.574;9.252;2022-10-20T00:33:57;40.75;;;28.77;;
47625;SDS011;33342;45.574;9.252;2022-10-20T00:36:24;42.15;;;28.25;;
47625;SDS011;33342;45.574;9.252;2022-10-20T00:38:56;41.10;;;30.42;;
47625;SDS011;33342;45.574;9.252;2022-10-20T00:41:26;40.25;;;30.00;;
47625;SDS011;33342;45.574;9.252;2022-10-20T00:43:57;40.25;;;27.70;;
47625;SDS011;33342;45.574;9.252;2022-10-20T00:46:31;38.40;;;27.98;;
47625;SDS011;33342;45.574;9.252;2022-10-20T00:49:13;40.58;;;27.80;;
47625;SDS011;33342;45.574;9.252;2022-10-20T00:51:50;43.70;;;27.67;;
47625;SDS011;33342;45.574;9.252;2022-10-20T00:54:19;44.30;;;29.42;;
47625;SDS011;33342;45.574;9.252;2022-10-20T00:56:49;40.35;;;27.88;;
47625;SDS011;33342;45.574;9.252;2022-10-20T00:59:22;37.92;;;27.13;;
47625;SDS011;33342;45.574;9.252;2022-10-20T01:01:54;38.97;;;27.30;;
47625;SDS011;33342;45.574;9.252;2022-10-20T01:04:21;40.10;;;27.75;;
47625;SDS011;33342;45.574;9.252;2022-10-20T01:06:50;39.30;;;27.38;;
47625;SDS011;33342;45.574;9.252;2022-10-20T01:09:17;38.67;;;28.20;;
47625;SDS011;33342;45.574;9.252;2022-10-20T01:17:31;42.05;;;28.63;;
47625;SDS011;33342;45.574;9.252;2022-10-20T01:20:23;42.95;;;28.83;;
47625;SDS011;33342;45.574;9.252;2022-10-20T01:28:51;41.47;;;29.30;;
47625;SDS011;33342;45.574;9.252;2022-10-20T01:31:37;44.50;;;30.05;;
47625;SDS011;33342;45.574;9.252;2022-10-20T01:34:13;45.38;;;31.05;;
47625;SDS011;33342;45.574;9.252;2022-10-20T01:36:57;45.53;;;32.00;;
47625;SDS011;33342;45.574;9.252;2022-10-20T01:39:44;45.50;;;32.03;;
47625;SDS011;33342;45.574;9.252;2022-10-20T01:42:20;49.85;;;32.67;;
47625;SDS011;33342;45.574;9.252;2022-10-20T01:44:50;43.25;;;31.00;;
47625;SDS011;33342;45.574;9.252;2022-10-20T01:47:21;48.47;;;32.35;;
47625;SDS011;33342;45.574;9.252;2022-10-20T01:49:51;44.60;;;32.60;;
47625;SDS011;33342;45.574;9.252;2022-10-20T01:52:20;42.03;;;30.73;;
47625;SDS011;33342;45.574;9.252;2022-10-20T01:54:47;45.55;;;31.75;;
47625;SDS011;33342;45.574;9.252;2022-10-20T02:00:38;49.38;;;30.45;;
47625;SDS011;33342;45.574;9.252;2022-10-20T02:03:13;44.22;;;31.40;;
47625;SDS011;33342;45.574;9.252;2022-10-20T02:06:02;48.38;;;31.38;;
47625;SDS011;33342;45.574;9.252;2022-10-20T02:08:48;42.65;;;29.65;;
47625;SDS011;33342;45.574;9.252;2022-10-20T02:12:06;44.85;;;31.20;;
47625;SDS011;33342;45.574;9.252;2022-10-20T02:14:16;44.67;;;31.40;;
47625;SDS011;33342;45.574;9.252;2022-10-20T02:16:46;43.35;;;30.40;;
47625;SDS011;33342;45.574;9.252;2022-10-20T02:19:17;42.58;;;30.70;;
47625;SDS011;33342;45.574;9.252;2022-10-20T02:21:48;43.42;;;30.52;;
47625;SDS011;33342;45.574;9.252;2022-10-20T02:24:17;43.45;;;30.33;;
47625;SDS011;33342;45.574;9.252;2022-10-20T02:26:50;44.13;;;30.25;;
47625;SDS011;33342;45.574;9.252;2022-10-20T02:29:20;42.42;;;29.50;;
47625;SDS011;33342;45.574;9.252;2022-10-20T02:31:52;42.45;;;29.23;;
47625;SDS011;33342;45.574;9.252;2022-10-20T02:34:24;41.53;;;29.30;;
47625;SDS011;33342;45.574;9.252;2022-10-20T02:36:53;44.05;;;29.33;;
47625;SDS011;33342;45.574;9.252;2022-10-20T02:39:25;42.60;;;28.50;;
47625;SDS011;33342;45.574;9.252;2022-10-20T02:41:53;42.85;;;28.13;;
47625;SDS011;33342;45.574;9.252;2022-10-20T02:44:20;40.58;;;28.35;;
47625;SDS011;33342;45.574;9.252;2022-10-20T02:46:50;40.33;;;28.73;;
47625;SDS011;33342;45.574;9.252;2022-10-20T02:49:17;39.65;;;27.25;;
47625;SDS011;33342;45.574;9.252;2022-10-20T02:51:45;41.08;;;27.42;;
47625;SDS011;33342;45.574;9.252;2022-10-20T02:54:12;40.55;;;27.83;;
47625;SDS011;33342;45.574;9.252;2022-10-20T02:56:39;40.78;;;27.88;;
47625;SDS011;33342;45.574;9.252;2022-10-20T02:59:08;42.67;;;26.05;;
47625;SDS011;33342;45.574;9.252;2022-10-20T03:01:40;38.58;;;25.90;;
47625;SDS011;33342;45.574;9.252;2022-10-20T03:04:08;38.22;;;26.20;;
47625;SDS011;33342;45.574;9.252;2022-10-20T03:06:35;41.40;;;26.80;;
47625;SDS011;33342;45.574;9.252;2022-10-20T03:09:02;35.30;;;26.30;;
47625;SDS011;33342;45.574;9.252;2022-10-20T03:11:30;39.40;;;25.77;;
47625;SDS011;33342;45.574;9.252;2022-10-20T03:13:57;37.92;;;25.42;;
47625;SDS011;33342;45.574;9.252;2022-10-20T03:16:24;36.60;;;25.85;;
47625;SDS011;33342;45.574;9.252;2022-10-20T03:18:51;38.97;;;25.88;;
47625;SDS011;33342;45.574;9.252;2022-10-20T03:21:21;35.53;;;25.73;;
47625;SDS011;33342;45.574;9.252;2022-10-20T03:23:48;35.10;;;24.52;;
47625;SDS011;33342;45.574;9.252;2022-10-20T03:26:15;33.88;;;23.77;;
47625;SDS011;33342;45.574;9.252;2022-10-20T03:28:43;32.53;;;24.00;;
47625;SDS011;33342;45.574;9.252;2022-10-20T03:31:10;36.20;;;25.23;;
47625;SDS011;33342;45.574;9.252;2022-10-20T03:33:37;35.58;;;24.55;;
47625;SDS011;33342;45.574;9.252;2022-10-20T03:36:04;32.35;;;23.95;;
47625;SDS011;33342;45.574;9.252;2022-10-20T03:38:31;36.03;;;23.20;;
47625;SDS011;33342;45.574;9.252;2022-10-20T03:40:58;33.95;;;23.77;;
47625;SDS011;33342;45.574;9.252;2022-10-20T03:43:28;33.05;;;23.25;;
47625;SDS011;33342;45.574;9.252;2022-10-20T03:46:01;34.58;;;23.85;;
47625;SDS011;33342;45.574;9.252;2022-10-20T03:48:33;38.65;;;24.80;;
47625;SDS011;33342;45.574;9.252;2022-10-20T03:51:01;36.17;;;23.83;;
47625;SDS011;33342;45.574;9.252;2022-10-20T03:53:29;33.20;;;23.45;;
47625;SDS011;33342;45.574;9.252;2022-10-20T03:55:56;31.98;;;23.27;;
47625;SDS011;33342;45.574;9.252;2022-10-20T03:58:23;32.03;;;22.75;;
47625;SDS011;33342;45.574;9.252;2022-10-20T04:00:50;35.42;;;24.25;;
47625;SDS011;33342;45.574;9.252;2022-10-20T04:03:17;33.83;;;23.77;;
47625;SDS011;33342;45.574;9.252;2022-10-20T04:05:44;30.95;;;22.77;;
47625;SDS011;33342;45.574;9.252;2022-10-20T04:08:12;34.60;;;22.67;;
47625;SDS011;33342;45.574;9.252;2022-10-20T04:10:41;33.47;;;23.33;;
47625;SDS011;33342;45.574;9.252;2022-10-20T04:13:08;31.48;;;21.35;;
47625;SDS011;33342;45.574;9.252;2022-10-20T04:15:35;28.33;;;21.45;;
47625;SDS011;33342;45.574;9.252;2022-10-20T04:18:02;30.30;;;21.92;;
47625;SDS011;33342;45.574;9.252;2022-10-20T04:20:29;26.63;;;20.80;;
47625;SDS011;33342;45.574;9.252;2022-10-20T04:22:57;31.05;;;20.27;;
47625;SDS011;33342;45.574;9.252;2022-10-20T04:25:24;31.75;;;21.15;;
47625;SDS011;33342;45.574;9.252;2022-10-20T04:27:51;33.63;;;22.40;;
47625;SDS011;33342;45.574;9.252;2022-10-20T04:30:18;32.40;;;21.40;;
47625;SDS011;33342;45.574;9.252;2022-10-20T04:32:45;27.77;;;20.08;;
47625;SDS011;33342;45.574;9.252;2022-10-20T04:35:12;28.33;;;19.90;;
47625;SDS011;33342;45.574;9.252;2022-10-20T04:37:39;29.05;;;20.58;;
47625;SDS011;33342;45.574;9.252;2022-10-20T04:40:06;29.25;;;19.92;;
47625;SDS011;33342;45.574;9.252;2022-10-20T04:42:33;27.08;;;19.33;;
47625;SDS011;33342;45.574;9.252;2022-10-20T04:45:00;29.40;;;20.77;;
47625;SDS011;33342;45.574;9.252;2022-10-20T04:47:31;29.38;;;21.23;;
47625;SDS011;33342;45.574;9.252;2022-10-20T04:49:59;31.75;;;20.13;;
47625;SDS011;33342;45.574;9.252;2022-10-20T04:52:27;29.45;;;20.42;;
47625;SDS011;33342;45.574;9.252;2022-10-20T04:54:54;29.48;;;20.48;;
47625;SDS011;33342;45.574;9.252;2022-10-20T04:57:21;27.38;;;18.95;;
47625;SDS011;33342;45.574;9.252;2022-10-20T04:59:49;30.52;;;20.48;;
47625;SDS011;33342;45.574;9.252;2022-10-20T05:02:19;29.40;;;19.52;;
47625;SDS011;33342;45.574;9.252;2022-10-20T05:04:45;27.83;;;19.60;;
47625;SDS011;33342;45.574;9.252;2022-10-20T05:07:12;27.98;;;20.33;;
47625;SDS011;33342;45.574;9.252;2022-10-20T05:09:39;30.13;;;20.17;;
47625;SDS011;33342;45.574;9.252;2022-10-20T05:12:07;33.20;;;21.50;;
47625;SDS011;33342;45.574;9.252;2022-10-20T05:14:34;29.02;;;21.00;;
47625;SDS011;33342;45.574;9.252;2022-10-20T05:17:01;26.85;;;20.40;;
47625;SDS011;33342;45.574;9.252;2022-10-20T05:19:33;32.60;;;20.67;;
47625;SDS011;33342;45.574;9.252;2022-10-20T05:22:00;31.42;;;20.60;;
47625;SDS011;33342;45.574;9.252;2022-10-20T05:24:28;30.77;;;21.17;;
47625;SDS011;33342;45.574;9.252;2022-10-20T05:26:55;29.70;;;20.88;;
47625;SDS011;33342;45.574;9.252;2022-10-20T05:29:23;31.25;;;21.52;;
47625;SDS011;33342;45.574;9.252;2022-10-20T05:31:50;29.98;;;21.17;;
47625;SDS011;33342;45.574;9.252;2022-10-20T05:34:17;29.48;;;21.75;;
47625;SDS011;33342;45.574;9.252;2022-10-20T05:36:44;28.77;;;20.02;;
47625;SDS011;33342;45.574;9.252;2022-10-20T05:39:11;33.17;;;21.75;;
47625;SDS011;33342;45.574;9.252;2022-10-20T05:41:38;31.23;;;22.55;;
47625;SDS011;33342;45.574;9.252;2022-10-20T05:44:06;32.70;;;22.17;;
47625;SDS011;33342;45.574;9.252;2022-10-20T05:46:35;34.22;;;24.25;;
47625;SDS011;33342;45.574;9.252;2022-10-20T05:49:11;35.40;;;24.05;;
47625;SDS011;33342;45.574;9.252;2022-10-20T05:51:39;37.97;;;24.88;;
47625;SDS011;33342;45.574;9.252;2022-10-20T05:54:08;35.35;;;23.98;;
47625;SDS011;33342;45.574;9.252;2022-10-20T05:56:37;36.65;;;24.60;;
47625;SDS011;33342;45.574;9.252;2022-10-20T05:59:05;37.58;;;24.05;;
47625;SDS011;33342;45.574;9.252;2022-10-20T06:01:32;41.17;;;25.42;;
47625;SDS011;33342;45.574;9.252;2022-10-20T06:04:15;41.20;;;25.83;;
47625;SDS011;33342;45.574;9.252;2022-10-20T06:06:50;41.47;;;26.63;;
47625;SDS011;33342;45.574;9.252;2022-10-20T06:09:18;39.53;;;25.67;;
47625;SDS011;33342;45.574;9.252;2022-10-20T06:11:46;41.50;;;28.10;;
47625;SDS011;33342;45.574;9.252;2022-10-20T06:14:13;39.78;;;26.45;;
47625;SDS011;33342;45.574;9.252;2022-10-20T06:16:40;38.47;;;24.60;;
47625;SDS011;33342;45.574;9.252;2022-10-20T06:19:07;37.30;;;24.48;;
47625;SDS011;33342;45.574;9.252;2022-10-20T06:21:36;37.38;;;24.98;;
47625;SDS011;33342;45.574;9.252;2022-10-20T06:24:04;35.40;;;23.35;;
47625;SDS011;33342;45.574;9.252;2022-10-20T06:26:33;38.90;;;24.65;;
47625;SDS011;33342;45.574;9.252;2022-10-20T06:29:04;37.22;;;24.55;;
47625;SDS011;33342;45.574;9.252;2022-10-20T06:31:36;34.80;;;24.15;;
47625;SDS011;33342;45.574;9.252;2022-10-20T06:34:08;39.88;;;25.92;;
47625;SDS011;33342;45.574;9.252;2022-10-20T06:36:38;32.85;;;22.15;;
47625;SDS011;33342;45.574;9.252;2022-10-20T06:39:09;39.55;;;25.75;;
47625;SDS011;33342;45.574;9.252;2022-10-20T06:41:38;34.67;;;24.30;;
47625;SDS011;33342;45.574;9.252;2022-10-20T06:44:13;38.90;;;23.50;;
47625;SDS011;33342;45.574;9.252;2022-10-20T06:46:40;39.22;;;24.20;;
47625;SDS011;33342;45.574;9.252;2022-10-20T06:49:07;37.53;;;24.15;;
47625;SDS011;33342;45.574;9.252;2022-10-20T06:51:34;41.58;;;26.27;;
47625;SDS011;33342;45.574;9.252;2022-10-20T06:54:03;40.45;;;26.65;;
47625;SDS011;33342;45.574;9.252;2022-10-20T06:56:31;39.60;;;25.45;;
47625;SDS011;33342;45.574;9.252;2022-10-20T06:59:00;37.15;;;23.73;;
47625;SDS011;33342;45.574;9.252;2022-10-20T07:01:31;40.80;;;24.48;;
47625;SDS011;33342;45.574;9.252;2022-10-20T07:04:02;39.03;;;24.40;;
47625;SDS011;33342;45.574;9.252;2022-10-20T07:06:39;35.50;;;23.48;;
47625;SDS011;33342;45.574;9.252;2022-10-20T07:09:09;35.80;;;24.27;;
47625;SDS011;33342;45.574;9.252;2022-10-20T07:11:41;38.63;;;25.00;;
47625;SDS011;33342;45.574;9.252;2022-10-20T07:14:10;36.22;;;24.83;;
47625;SDS011;33342;45.574;9.252;2022-10-20T07:16:38;40.47;;;24.38;;
47625;SDS011;33342;45.574;9.252;2022-10-20T07:19:06;36.17;;;23.85;;
47625;SDS011;33342;45.574;9.252;2022-10-20T07:21:33;38.90;;;27.17;;
47625;SDS011;33342;45.574;9.252;2022-10-20T07:24:06;37.00;;;24.80;;
47625;SDS011;33342;45.574;9.252;2022-10-20T07:26:34;41.70;;;24.05;;
47625;SDS011;33342;45.574;9.252;2022-10-20T07:29:03;44.75;;;23.83;;
47625;SDS011;33342;45.574;9.252;2022-10-20T07:31:38;47.03;;;24.52;;
47625;SDS011;33342;45.574;9.252;2022-10-20T07:34:08;34.80;;;23.17;;
47625;SDS011;33342;45.574;9.252;2022-10-20T07:36:51;38.72;;;24.23;;
47625;SDS011;33342;45.574;9.252;2022-10-20T07:39:19;36.45;;;24.42;;
47625;SDS011;33342;45.574;9.252;2022-10-20T07:41:48;38.60;;;24.17;;
47625;SDS011;33342;45.574;9.252;2022-10-20T07:44:16;41.08;;;25.30;;
47625;SDS011;33342;45.574;9.252;2022-10-20T07:46:43;39.72;;;23.35;;
47625;SDS011;33342;45.574;9.252;2022-10-20T07:49:10;41.38;;;23.35;;
47625;SDS011;33342;45.574;9.252;2022-10-20T07:51:57;37.30;;;22.02;;
47625;SDS011;33342;45.574;9.252;2022-10-20T07:54:24;38.42;;;22.20;;
47625;SDS011;33342;45.574;9.252;2022-10-20T07:56:51;36.50;;;21.52;;
47625;SDS011;33342;45.574;9.252;2022-10-20T07:59:21;32.58;;;20.95;;
47625;SDS011;33342;45.574;9.252;2022-10-20T08:01:48;31.30;;;21.67;;
47625;SDS011;33342;45.574;9.252;2022-10-20T08:04:15;35.30;;;20.02;;
47625;SDS011;33342;45.574;9.252;2022-10-20T08:06:44;33.42;;;21.65;;
47625;SDS011;33342;45.574;9.252;2022-10-20T08:09:12;35.47;;;19.33;;
47625;SDS011;33342;45.574;9.252;2022-10-20T08:11:41;37.42;;;20.80;;
47625;SDS011;33342;45.574;9.252;2022-10-20T08:14:08;34.70;;;21.80;;
47625;SDS011;33342;45.574;9.252;2022-10-20T08:16:35;31.13;;;20.67;;
47625;SDS011;33342;45.574;9.252;2022-10-20T08:19:09;30.02;;;19.13;;
47625;SDS011;33342;45.574;9.252;2022-10-20T08:21:50;38.30;;;20.17;;
47625;SDS011;33342;45.574;9.252;2022-10-20T08:24:17;32.83;;;19.27;;
47625;SDS011;33342;45.574;9.252;2022-10-20T08:26:44;29.67;;;19.27;;
47625;SDS011;33342;45.574;9.252;2022-10-20T08:29:11;31.73;;;20.65;;
47625;SDS011;33342;45.574;9.252;2022-10-20T08:31:38;34.95;;;19.02;;
47625;SDS011;33342;45.574;9.252;2022-10-20T08:34:05;35.25;;;21.42;;
47625;SDS011;33342;45.574;9.252;2022-10-20T08:36:33;31.38;;;18.88;;
47625;SDS011;33342;45.574;9.252;2022-10-20T08:39:02;31.92;;;20.83;;
47625;SDS011;33342;45.574;9.252;2022-10-20T08:41:32;41.88;;;23.42;;
47625;SDS011;33342;45.574;9.252;2022-10-20T08:44:31;38.33;;;23.50;;
47625;SDS011;33342;45.574;9.252;2022-10-20T08:47:02;34.55;;;23.30;;
47625;SDS011;33342;45.574;9.252;2022-10-20T08:49:38;41.97;;;23.67;;
47625;SDS011;33342;45.574;9.252;2022-10-20T08:52:08;36.58;;;23.80;;
47625;SDS011;33342;45.574;9.252;2022-10-20T08:54:40;39.35;;;23.55;;
47625;SDS011;33342;45.574;9.252;2022-10-20T08:57:21;35.17;;;23.17;;
47625;SDS011;33342;45.574;9.252;2022-10-20T08:59:49;39.45;;;24.38;;
47625;SDS011;33342;45.574;9.252;2022-10-20T09:02:18;35.78;;;23.10;;
47625;SDS011;33342;45.574;9.252;2022-10-20T09:04:53;38.13;;;24.75;;
47625;SDS011;33342;45.574;9.252;2022-10-20T09:07:27;37.95;;;25.45;;
47625;SDS011;33342;45.574;9.252;2022-10-20T09:10:02;44.78;;;27.80;;
47625;SDS011;33342;45.574;9.252;2022-10-20T09:12:44;53.42;;;31.65;;
47625;SDS011;33342;45.574;9.252;2022-10-20T09:15:13;56.50;;;34.40;;
47625;SDS011;33342;45.574;9.252;2022-10-20T09:17:43;69.28;;;41.13;;
47625;SDS011;33342;45.574;9.252;2022-10-20T09:20:32;65.60;;;42.08;;
47625;SDS011;33342;45.574;9.252;2022-10-20T09:23:03;73.63;;;46.55;;
47625;SDS011;33342;45.574;9.252;2022-10-20T09:25:53;83.72;;;48.33;;
47625;SDS011;33342;45.574;9.252;2022-10-20T09:28:21;72.30;;;45.30;;
47625;SDS011;33342;45.574;9.252;2022-10-20T09:30:52;75.28;;;45.67;;
47625;SDS011;33342;45.574;9.252;2022-10-20T09:33:30;85.28;;;48.35;;
47625;SDS011;33342;45.574;9.252;2022-10-20T09:38:32;73.82;;;45.67;;
47625;SDS011;33342;45.574;9.252;2022-10-20T09:46:07;66.22;;;42.28;;
47625;SDS011;33342;45.574;9.252;2022-10-20T09:48:40;62.65;;;41.55;;
47625;SDS011;33342;45.574;9.252;2022-10-20T09:51:23;64.43;;;42.05;;
47625;SDS011;33342;45.574;9.252;2022-10-20T09:56:39;64.68;;;41.30;;
47625;SDS011;33342;45.574;9.252;2022-10-20T09:59:16;59.72;;;39.40;;
47625;SDS011;33342;45.574;9.252;2022-10-20T10:01:51;64.40;;;41.63;;
47625;SDS011;33342;45.574;9.252;2022-10-20T10:04:29;59.65;;;39.70;;
47625;SDS011;33342;45.574;9.252;2022-10-20T10:06:58;59.67;;;41.03;;
47625;SDS011;33342;45.574;9.252;2022-10-20T10:11:58;65.80;;;42.13;;
47625;SDS011;33342;45.574;9.252;2022-10-20T10:14:31;62.60;;;42.22;;
47625;SDS011;33342;45.574;9.252;2022-10-20T10:17:00;61.50;;;41.45;;
47625;SDS011;33342;45.574;9.252;2022-10-20T10:19:31;70.03;;;44.60;;
47625;SDS011;33342;45.574;9.252;2022-10-20T10:21:59;63.88;;;42.63;;
47625;SDS011;33342;45.574;9.252;2022-10-20T10:32:45;63.38;;;41.22;;
47625;SDS011;33342;45.574;9.252;2022-10-20T10:35:24;66.55;;;42.70;;
47625;SDS011;33342;45.574;9.252;2022-10-20T10:38:18;62.55;;;42.55;;
47625;SDS011;33342;45.574;9.252;2022-10-20T10:46:22;67.13;;;41.95;;
47625;SDS011;33342;45.574;9.252;2022-10-20T10:51:40;63.63;;;39.78;;
47625;SDS011;33342;45.574;9.252;2022-10-20T10:54:32;59.83;;;40.95;;
47625;SDS011;33342;45.574;9.252;2022-10-20T10:57:15;64.28;;;42.08;;
47625;SDS011;33342;45.574;9.252;2022-10-20T10:59:52;63.95;;;42.42;;
47625;SDS011;33342;45.574;9.252;2022-10-20T11:04:54;61.17;;;44.13;;
47625;SDS011;33342;45.574;9.252;2022-10-20T11:07:57;64.32;;;43.15;;
47625;SDS011;33342;45.574;9.252;2022-10-20T11:15:59;67.82;;;41.58;;
47625;SDS011;33342;45.574;9.252;2022-10-20T11:18:59;58.50;;;39.10;;
47625;SDS011;33342;45.574;9.252;2022-10-20T11:27:10;54.53;;;37.33;;
47625;SDS011;33342;45.574;9.252;2022-10-20T11:30:28;49.25;;;35.00;;
47625;SDS011;33342;45.574;9.252;2022-10-20T11:32:46;53.60;;;35.72;;
47625;SDS011;33342;45.574;9.252;2022-10-20T11:41:05;56.42;;;37.28;;
47625;SDS011;33342;45.574;9.252;2022-10-20T11:46:31;47.33;;;33.72;;
47625;SDS011;33342;45.574;9.252;2022-10-20T11:49:06;50.67;;;34.63;;
47625;SDS011;33342;45.574;9.252;2022-10-20T12:00:29;48.78;;;33.78;;
47625;SDS011;33342;45.574;9.252;2022-10-20T12:11:33;51.85;;;35.38;;
47625;SDS011;33342;45.574;9.252;2022-10-20T12:19:28;55.78;;;37.50;;
47625;SDS011;33342;45.574;9.252;2022-10-20T12:21:58;99.85;;;40.40;;
47625;SDS011;33342;45.574;9.252;2022-10-20T12:24:29;57.35;;;37.33;;
47625;SDS011;33342;45.574;9.252;2022-10-20T12:34:47;54.88;;;34.97;;
47625;SDS011;33342;45.574;9.252;2022-10-20T12:37:17;52.40;;;37.20;;
47625;SDS011;33342;45.574;9.252;2022-10-20T12:39:44;56.70;;;36.25;;
47625;SDS011;33342;45.574;9.252;2022-10-20T12:42:22;60.10;;;35.97;;
47625;SDS011;33342;45.574;9.252;2022-10-20T12:44:58;51.83;;;36.55;;
47625;SDS011;33342;45.574;9.252;2022-10-20T12:47:32;49.05;;;34.20;;
47625;SDS011;33342;45.574;9.252;2022-10-20T12:50:07;53.00;;;35.70;;
47625;SDS011;33342;45.574;9.252;2022-10-20T12:52:44;58.35;;;34.20;;
47625;SDS011;33342;45.574;9.252;2022-10-20T12:57:44;65.22;;;35.65;;
47625;SDS011;33342;45.574;9.252;2022-10-20T13:03:04;52.47;;;35.88;;
47625;SDS011;33342;45.574;9.252;2022-10-20T13:05:58;53.53;;;36.50;;
47625;SDS011;33342;45.574;9.252;2022-10-20T13:08:27;50.03;;;36.72;;
47625;SDS011;33342;45.574;9.252;2022-10-20T13:10:54;52.53;;;36.90;;
47625;SDS011;33342;45.574;9.252;2022-10-20T13:16:07;70.40;;;44.90;;
47625;SDS011;33342;45.574;9.252;2022-10-20T13:18:42;56.38;;;37.47;;
47625;SDS011;33342;45.574;9.252;2022-10-20T13:21:25;53.35;;;37.90;;
47625;SDS011;33342;45.574;9.252;2022-10-20T13:26:37;51.15;;;35.53;;
47625;SDS011;33342;45.574;9.252;2022-10-20T13:29:17;59.35;;;36.67;;
47625;SDS011;33342;45.574;9.252;2022-10-20T13:32:16;52.10;;;37.08;;
47625;SDS011;33342;45.574;9.252;2022-10-20T13:35:27;50.85;;;36.55;;
47625;SDS011;33342;45.574;9.252;2022-10-20T13:41:18;49.55;;;34.47;;
47625;SDS011;33342;45.574;9.252;2022-10-20T13:43:51;55.83;;;34.58;;
47625;SDS011;33342;45.574;9.252;2022-10-20T13:52:21;48.15;;;34.83;;
47625;SDS011;33342;45.574;9.252;2022-10-20T13:54:52;49.08;;;34.17;;
47625;SDS011;33342;45.574;9.252;2022-10-20T13:57:25;47.58;;;35.33;;
47625;SDS011;33342;45.574;9.252;2022-10-20T13:59:58;49.65;;;34.58;;
47625;SDS011;33342;45.574;9.252;2022-10-20T14:02:28;44.25;;;31.50;;
47625;SDS011;33342;45.574;9.252;2022-10-20T14:05:04;57.20;;;34.55;;
47625;SDS011;33342;45.574;9.252;2022-10-20T14:07:42;51.30;;;35.53;;
47625;SDS011;33342;45.574;9.252;2022-10-20T14:10:19;53.13;;;35.55;;
47625;SDS011;33342;45.574;9.252;2022-10-20T14:12:53;48.55;;;35.22;;
47625;SDS011;33342;45.574;9.252;2022-10-20T14:15:31;56.40;;;34.63;;
47625;SDS011;33342;45.574;9.252;2022-10-20T14:18:04;52.08;;;34.08;;
47625;SDS011;33342;45.574;9.252;2022-10-20T14:20:34;64.28;;;34.38;;
47625;SDS011;33342;45.574;9.252;2022-10-20T14:23:08;61.00;;;34.72;;
47625;SDS011;33342;45.574;9.252;2022-10-20T14:25:37;60.78;;;35.38;;
47625;SDS011;33342;45.574;9.252;2022-10-20T14:28:04;58.25;;;35.38;;
47625;SDS011;33342;45.574;9.252;2022-10-20T14:30:33;47.30;;;34.72;;
47625;SDS011;33342;45.574;9.252;2022-10-20T14:33:10;57.35;;;35.17;;
47625;SDS011;33342;45.574;9.252;2022-10-20T14:35:41;50.50;;;35.00;;
47625;SDS011;33342;45.574;9.252;2022-10-20T14:38:16;48.63;;;34.10;;
47625;SDS011;33342;45.574;9.252;2022-10-20T14:40:52;55.38;;;37.60;;
47625;SDS011;33342;45.574;9.252;2022-10-20T14:43:37;50.50;;;35.22;;
47625;SDS011;33342;45.574;9.252;2022-10-20T14:46:15;46.70;;;33.13;;
47625;SDS011;33342;45.574;9.252;2022-10-20T14:48:53;51.33;;;36.13;;
47625;SDS011;33342;45.574;9.252;2022-10-20T15:02:05;51.13;;;34.67;;
47625;SDS011;33342;45.574;9.252;2022-10-20T15:04:39;49.88;;;34.65;;
47625;SDS011;33342;45.574;9.252;2022-10-20T15:07:17;54.22;;;35.05;;
47625;SDS011;33342;45.574;9.252;2022-10-20T15:09:46;55.50;;;35.63;;
47625;SDS011;33342;45.574;9.252;2022-10-20T15:14:46;52.42;;;34.20;;
47625;SDS011;33342;45.574;9.252;2022-10-20T15:17:28;52.38;;;34.88;;
47625;SDS011;33342;45.574;9.252;2022-10-20T15:22:59;153.13;;;46.00;;
47625;SDS011;33342;45.574;9.252;2022-10-20T15:28:27;67.20;;;37.30;;
47625;SDS011;33342;45.574;9.252;2022-10-20T15:30:55;55.45;;;34.95;;
47625;SDS011;33342;45.574;9.252;2022-10-20T15:33:23;52.78;;;34.88;;
47625;SDS011;33342;45.574;9.252;2022-10-20T15:35:50;51.67;;;34.03;;
47625;SDS011;33342;45.574;9.252;2022-10-20T15:38:18;53.05;;;35.80;;
47625;SDS011;33342;45.574;9.252;2022-10-20T15:40:46;55.92;;;36.13;;
47625;SDS011;33342;45.574;9.252;2022-10-20T15:43:17;58.63;;;34.90;;
47625;SDS011;33342;45.574;9.252;2022-10-20T15:46:02;50.00;;;34.17;;
47625;SDS011;33342;45.574;9.252;2022-10-20T15:48:29;46.10;;;31.85;;
47625;SDS011;33342;45.574;9.252;2022-10-20T15:50:56;51.38;;;34.28;;
47625;SDS011;33342;45.574;9.252;2022-10-20T15:53:27;53.28;;;33.10;;
47625;SDS011;33342;45.574;9.252;2022-10-20T15:55:54;47.13;;;34.78;;
47625;SDS011;33342;45.574;9.252;2022-10-20T15:58:21;49.28;;;35.70;;
47625;SDS011;33342;45.574;9.252;2022-10-20T16:00:51;46.08;;;34.05;;
47625;SDS011;33342;45.574;9.252;2022-10-20T16:03:18;52.00;;;34.08;;
47625;SDS011;33342;45.574;9.252;2022-10-20T16:05:45;48.92;;;33.85;;
47625;SDS011;33342;45.574;9.252;2022-10-20T16:08:12;48.63;;;33.17;;
47625;SDS011;33342;45.574;9.252;2022-10-20T16:10:45;48.90;;;33.50;;
47625;SDS011;33342;45.574;9.252;2022-10-20T16:13:12;50.13;;;33.70;;
47625;SDS011;33342;45.574;9.252;2022-10-20T16:15:41;50.38;;;35.72;;
47625;SDS011;33342;45.574;9.252;2022-10-20T16:18:09;52.38;;;34.35;;
47625;SDS011;33342;45.574;9.252;2022-10-20T16:20:36;46.47;;;34.03;;
47625;SDS011;33342;45.574;9.252;2022-10-20T16:23:03;49.92;;;33.95;;
47625;SDS011;33342;45.574;9.252;2022-10-20T16:25:30;50.53;;;34.78;;
47625;SDS011;33342;45.574;9.252;2022-10-20T16:27:57;53.20;;;35.05;;
47625;SDS011;33342;45.574;9.252;2022-10-20T16:30:24;50.22;;;34.70;;
47625;SDS011;33342;45.574;9.252;2022-10-20T16:32:51;57.28;;;34.63;;
47625;SDS011;33342;45.574;9.252;2022-10-20T16:35:19;55.75;;;36.03;;
47625;SDS011;33342;45.574;9.252;2022-10-20T16:37:47;49.88;;;35.50;;
47625;SDS011;33342;45.574;9.252;2022-10-20T16:40:14;48.90;;;33.95;;
47625;SDS011;33342;45.574;9.252;2022-10-20T16:42:41;53.70;;;35.25;;
47625;SDS011;33342;45.574;9.252;2022-10-20T16:45:08;51.85;;;34.63;;
47625;SDS011;33342;45.574;9.252;2022-10-20T16:47:35;54.28;;;34.78;;
47625;SDS011;33342;45.574;9.252;2022-10-20T16:50:03;49.50;;;34.53;;
47625;SDS011;33342;45.574;9.252;2022-10-20T16:52:31;48.63;;;34.25;;
47625;SDS011;33342;45.574;9.252;2022-10-20T16:54:58;51.45;;;34.60;;
47625;SDS011;33342;45.574;9.252;2022-10-20T16:57:25;54.55;;;35.88;;
47625;SDS011;33342;45.574;9.252;2022-10-20T16:59:53;52.92;;;34.35;;
47625;SDS011;33342;45.574;9.252;2022-10-20T17:02:20;47.15;;;33.17;;